KFSO

Details ICAO KFSO
Name FRANKLIN CO STATE
Region United States
Timezone America/New_York (UTC-4.0)
Plans Departing 81
Arriving 89
Stats Elevation 228 ft / 69 m (AMSL)
Location 44.940300° -73.097500°
Runways 1
Magnetic Variation 14.420° W
Sunrise 2018-10-16 11:10:20 UTC / 2018-10-16 07:10:20 Local
Sunset 2018-10-16 22:07:49 UTC / 2018-10-16 18:07:49 Local
Advertisement - Login to hide

Runways

ID Width Length Bearing (true/mag) Surface Threshold Overrun Markings Lighting
01 60 ft / 18 m 3,002 ft / 915 m 349.49° / 3.91° ASPHALT 0 ft / 0 m 0 ft / 0 m APP EDGE THRESHOLD REIL-OMNI
19 60 ft / 18 m 3,002 ft / 915 m 169.49° / 183.91° ASPHALT 0 ft / 0 m 0 ft / 0 m APP EDGE THRESHOLD REIL-OMNI

Map

Weather


0- 5 10 15 20 25 30 35+ Temperature / °C

Clouds and Precipitation
Forecast for 2018-10-17 00:00 UTC. Updated an hour ago

Ground ~20,000 ft ~40,000 ft Winds

METAR

KFSO 162235Z AUTO 16003KT 10SM SCT041 SCT047 OVC060 06/02 A2993 RMK AO2 T00630020

TAF

Not found

Frequencies

Recorded 119.02 MHz AWOS 3
Approach 121.10 MHz BURLINGTON APP/DEP
Unicom 122.80 MHz CTAF/UNICOM
Approach 126.30 MHz BURLINGTON APP/DEP
Warning: Do not use this data for real-world aviation or navigation. No guarantee of current accuracy is given.